createdAt,value
2023-02-04T00:00:00.499Z,26.3
2023-02-04T00:05:00.412Z,26.3
2023-02-04T00:10:00.465Z,25.6
2023-02-04T00:15:00.406Z,25.6
2023-02-04T00:20:00.427Z,20.9
2023-02-04T00:25:00.447Z,20.9
2023-02-04T00:30:00.437Z,24.1
2023-02-04T00:35:00.425Z,24.1
2023-02-04T00:40:00.412Z,31.3
2023-02-04T00:45:00.432Z,31.3
2023-02-04T00:50:00.431Z,25.9
2023-02-04T00:55:00.455Z,25.9
2023-02-04T01:00:00.832Z,20.2
2023-02-04T01:05:00.519Z,20.2
2023-02-04T01:10:00.457Z,22.3
2023-02-04T01:15:00.451Z,22.3
2023-02-04T01:20:00.532Z,18.0
2023-02-04T01:25:00.424Z,18.0
2023-02-04T01:30:00.497Z,19.4
2023-02-04T01:35:00.431Z,19.4
2023-02-04T01:40:00.487Z,20.9
2023-02-04T01:45:00.538Z,20.9
2023-02-04T01:50:00.412Z,16.9
2023-02-04T01:55:00.438Z,16.9
2023-02-04T02:00:00.438Z,14.4
2023-02-04T02:05:00.513Z,14.4
2023-02-04T02:10:00.643Z,14.8
2023-02-04T02:15:00.437Z,14.8
2023-02-04T02:20:00.442Z,12.2
2023-02-04T02:25:00.454Z,12.2
2023-02-04T02:30:00.538Z,15.5
2023-02-04T02:35:00.487Z,15.5
2023-02-04T02:40:00.505Z,13.0
2023-02-04T02:45:00.448Z,13.0
2023-02-04T02:50:00.510Z,11.9
2023-02-04T02:55:00.583Z,11.9
2023-02-04T03:00:00.498Z,14.8
2023-02-04T03:05:00.505Z,14.8
2023-02-04T03:10:00.423Z,11.2
2023-02-04T03:15:00.477Z,11.2
2023-02-04T03:20:00.535Z,15.8
2023-02-04T03:25:00.562Z,15.8
2023-02-04T03:30:00.441Z,14.4
2023-02-04T03:35:00.442Z,14.4
2023-02-04T03:40:00.484Z,13.0
2023-02-04T03:45:00.482Z,13.0
2023-02-04T03:50:00.425Z,12.6
2023-02-04T03:55:00.516Z,12.6
2023-02-04T04:00:00.489Z,13.7
2023-02-04T04:05:00.430Z,13.7
2023-02-04T04:10:00.540Z,15.1
2023-02-04T04:15:00.435Z,15.1
2023-02-04T04:20:00.445Z,12.2
2023-02-04T04:25:00.467Z,12.2
2023-02-04T04:30:00.520Z,12.2
2023-02-04T04:35:00.514Z,12.2
2023-02-04T04:40:00.450Z,7.2
2023-02-04T04:45:00.439Z,7.2
2023-02-04T04:50:00.531Z,9.7
2023-02-04T04:55:00.405Z,9.7
2023-02-04T05:00:00.616Z,9.4
2023-02-04T05:05:00.677Z,9.4
2023-02-04T05:10:00.483Z,9.4
2023-02-04T05:15:00.445Z,9.4
2023-02-04T05:20:00.570Z,9.7
2023-02-04T05:25:00.441Z,9.7
2023-02-04T05:30:00.518Z,9.0
2023-02-04T05:35:00.421Z,9.0
2023-02-04T05:40:00.433Z,7.6
2023-02-04T05:45:00.494Z,7.6
2023-02-04T05:50:00.584Z,6.5
2023-02-04T05:55:00.418Z,6.5
2023-02-04T06:00:00.433Z,6.1
2023-02-04T06:05:00.422Z,6.1
2023-02-04T06:10:00.879Z,7.6
2023-02-04T06:15:00.433Z,7.6
2023-02-04T06:20:00.443Z,6.1
2023-02-04T06:25:00.491Z,6.1
2023-02-04T06:30:00.482Z,4.7
2023-02-04T06:35:00.432Z,4.7
2023-02-04T06:40:00.481Z,2.5
2023-02-04T06:45:00.432Z,0.0
2023-02-04T06:50:00.471Z,0.0
2023-02-04T06:55:00.411Z,0.0
2023-02-04T07:00:00.470Z,2.2
2023-02-04T07:05:00.464Z,1.8
2023-02-04T07:10:00.430Z,0.0
2023-02-04T07:15:00.445Z,1.8
2023-02-04T07:20:00.453Z,2.2
2023-02-04T07:25:00.405Z,2.9
2023-02-04T07:30:00.424Z,4.0
2023-02-04T07:35:00.703Z,0.0
2023-02-04T07:40:00.427Z,4.0
2023-02-04T07:45:00.497Z,4.0
2023-02-04T07:50:00.570Z,2.9
2023-02-04T07:55:00.442Z,2.5
2023-02-04T08:00:00.494Z,6.1
2023-02-04T08:05:00.409Z,4.0
2023-02-04T08:10:00.409Z,1.4
2023-02-04T08:15:00.409Z,6.8
2023-02-04T08:20:00.427Z,3.6
2023-02-04T08:25:00.415Z,6.5
2023-02-04T08:30:00.440Z,2.5
2023-02-04T08:35:00.489Z,9.0
2023-02-04T08:40:00.547Z,5.0
2023-02-04T08:45:00.406Z,6.8
2023-02-04T08:50:00.536Z,14.8
2023-02-04T08:55:00.429Z,8.3
2023-02-04T09:00:00.617Z,5.4
2023-02-04T09:05:00.548Z,7.6
2023-02-04T09:10:00.462Z,7.9
2023-02-04T09:15:00.437Z,5.0
2023-02-04T09:20:00.575Z,6.5
2023-02-04T09:25:00.519Z,9.7
2023-02-04T09:30:00.556Z,9.4
2023-02-04T09:35:00.495Z,9.4
2023-02-04T09:40:00.410Z,7.2
2023-02-04T09:45:00.496Z,8.6
2023-02-04T09:50:00.527Z,11.9
2023-02-04T09:55:00.399Z,11.2
2023-02-04T10:00:00.506Z,6.8
2023-02-04T10:05:00.449Z,11.9
2023-02-04T10:10:00.445Z,14.0
2023-02-04T10:15:00.597Z,9.7
2023-02-04T10:20:00.449Z,10.4
2023-02-04T10:25:00.431Z,11.9
2023-02-04T10:30:00.579Z,8.3
2023-02-04T10:35:00.505Z,13.0
2023-02-04T10:40:00.591Z,13.0
2023-02-04T10:45:00.470Z,10.1
2023-02-04T10:50:00.491Z,13.7
2023-02-04T10:55:00.497Z,16.6
2023-02-04T11:00:00.476Z,14.4
2023-02-04T11:05:00.450Z,10.8
2023-02-04T11:10:00.601Z,13.3
2023-02-04T11:15:00.472Z,13.7
2023-02-04T11:20:00.534Z,13.7
2023-02-04T11:25:00.518Z,14.8
2023-02-04T11:30:00.512Z,7.9
2023-02-04T11:35:00.504Z,10.1
2023-02-04T11:40:00.502Z,11.2
2023-02-04T11:45:00.463Z,10.8
2023-02-04T11:50:00.494Z,8.6
2023-02-04T11:55:00.443Z,6.1
2023-02-04T12:00:00.612Z,5.8
2023-02-04T12:05:00.509Z,14.8
2023-02-04T12:10:00.493Z,7.6
2023-02-04T12:15:00.610Z,7.2
2023-02-04T12:20:00.551Z,14.0
2023-02-04T12:25:00.463Z,8.6
2023-02-04T12:30:00.568Z,5.4
2023-02-04T12:35:00.538Z,10.8
2023-02-04T12:40:00.577Z,10.8
2023-02-04T12:45:00.628Z,9.7
2023-02-04T12:50:00.525Z,6.5
2023-02-04T12:55:00.458Z,6.8
2023-02-04T13:00:00.552Z,7.6
2023-02-04T13:05:00.621Z,6.1
2023-02-04T13:10:00.453Z,9.7
2023-02-04T13:15:00.588Z,11.9
2023-02-04T13:20:00.618Z,13.0
2023-02-04T13:25:04.311Z,8.6
2023-02-04T13:30:00.524Z,11.5
2023-02-04T13:35:00.539Z,9.7
2023-02-04T13:40:00.468Z,14.0
2023-02-04T13:45:00.434Z,15.1
2023-02-04T13:50:00.540Z,9.7
2023-02-04T13:55:00.448Z,5.0
2023-02-04T14:00:00.471Z,7.6
2023-02-04T14:05:00.444Z,5.4
2023-02-04T14:10:00.433Z,6.1
2023-02-04T14:15:00.428Z,10.8
2023-02-04T14:20:00.474Z,6.8
2023-02-04T14:25:00.543Z,5.0
2023-02-04T14:30:00.495Z,4.7
2023-02-04T14:35:00.515Z,3.6
2023-02-04T14:40:00.444Z,9.4
2023-02-04T14:45:00.475Z,4.3
2023-02-04T14:50:00.427Z,6.5
2023-02-04T14:55:00.428Z,11.2
2023-02-04T15:00:00.477Z,11.2
2023-02-04T15:05:00.429Z,5.0
2023-02-04T15:10:00.484Z,5.8
2023-02-04T15:15:00.433Z,9.7
2023-02-04T15:20:00.515Z,10.4
2023-02-04T15:25:00.576Z,8.3
2023-02-04T15:30:00.515Z,8.6
2023-02-04T15:35:00.459Z,4.7
2023-02-04T15:40:00.510Z,7.2
2023-02-04T15:45:00.426Z,6.1
2023-02-04T15:50:00.556Z,5.8
2023-02-04T15:55:00.488Z,7.6
2023-02-04T16:00:00.507Z,7.2
2023-02-04T16:05:00.547Z,3.6
2023-02-04T16:10:00.466Z,4.3
2023-02-04T16:15:00.547Z,3.2
2023-02-04T16:20:00.449Z,2.2
2023-02-04T16:25:00.439Z,0.0
2023-02-04T16:30:00.440Z,0.0
2023-02-04T16:35:00.453Z,1.4
2023-02-04T16:40:00.484Z,0.0
2023-02-04T16:45:00.546Z,1.4
2023-02-04T16:50:00.422Z,0.0
2023-02-04T16:55:00.529Z,0.0
2023-02-04T17:00:00.442Z,1.8
2023-02-04T17:05:00.413Z,1.4
2023-02-04T17:10:00.470Z,1.4
2023-02-04T17:15:00.443Z,0.0
2023-02-04T17:20:01.027Z,0.0
2023-02-04T17:25:00.555Z,1.8
2023-02-04T17:30:00.869Z,1.8
2023-02-04T17:35:00.411Z,3.2
2023-02-04T17:40:00.481Z,2.2
2023-02-04T17:45:00.439Z,3.6
2023-02-04T17:50:00.882Z,2.5
2023-02-04T17:55:00.483Z,3.2
2023-02-04T18:00:00.488Z,2.5
2023-02-04T18:05:00.417Z,3.2
2023-02-04T18:10:00.442Z,3.6
2023-02-04T18:15:00.433Z,2.2
2023-02-04T18:20:00.433Z,1.4
2023-02-04T18:25:00.521Z,3.2
2023-02-04T18:30:00.596Z,2.2
2023-02-04T18:35:00.410Z,3.6
2023-02-04T18:40:00.493Z,4.0
2023-02-04T18:45:00.428Z,4.3
2023-02-04T18:50:00.473Z,4.7
2023-02-04T18:55:00.426Z,5.4
2023-02-04T19:00:00.491Z,5.0
2023-02-04T19:05:14.687Z,6.5
2023-02-04T19:10:00.630Z,5.4
2023-02-04T19:15:00.405Z,6.1
2023-02-04T19:20:00.547Z,3.6
2023-02-04T19:25:00.408Z,6.1
2023-02-04T19:30:00.456Z,8.3
2023-02-04T19:35:00.525Z,6.8
2023-02-04T19:40:00.436Z,7.6
2023-02-04T19:45:00.501Z,6.8
2023-02-04T19:50:00.517Z,4.3
2023-02-04T19:55:00.425Z,6.5
2023-02-04T20:00:00.433Z,4.7
2023-02-04T20:05:00.466Z,3.6
2023-02-04T20:10:00.431Z,4.3
2023-02-04T20:15:00.428Z,5.4
2023-02-04T20:20:00.481Z,4.0
2023-02-04T20:25:00.465Z,4.7
2023-02-04T20:30:00.452Z,5.0
2023-02-04T20:35:00.405Z,4.0
2023-02-04T20:40:00.437Z,1.4
2023-02-04T20:45:00.487Z,1.4
2023-02-04T20:50:00.440Z,1.4
2023-02-04T20:55:00.428Z,0.0
2023-02-04T21:00:00.500Z,0.0
2023-02-04T21:05:00.431Z,0.0
2023-02-04T21:10:00.469Z,0.0
2023-02-04T21:15:00.444Z,0.0
2023-02-04T21:20:00.519Z,0.0
2023-02-04T21:25:00.478Z,0.0
2023-02-04T21:30:00.628Z,0.0
2023-02-04T21:35:00.399Z,0.0
2023-02-04T21:40:00.444Z,0.0
2023-02-04T21:45:00.410Z,0.0
2023-02-04T21:50:00.467Z,0.0
2023-02-04T21:55:00.431Z,0.0
2023-02-04T22:00:03.478Z,0.0
2023-02-04T22:05:00.418Z,0.0
2023-02-04T22:10:00.510Z,0.0
2023-02-04T22:15:00.424Z,0.0
2023-02-04T22:20:00.490Z,0.0
2023-02-04T22:25:00.501Z,0.0
2023-02-04T22:30:00.538Z,0.0
2023-02-04T22:35:00.425Z,0.0
2023-02-04T22:40:00.504Z,0.0
2023-02-04T22:45:00.430Z,0.0
2023-02-04T22:50:00.442Z,0.0
2023-02-04T22:55:00.448Z,0.0
2023-02-04T23:00:00.514Z,0.0
2023-02-04T23:05:00.468Z,1.8
2023-02-04T23:10:00.451Z,0.0
2023-02-04T23:15:00.419Z,0.0
2023-02-04T23:20:00.482Z,0.0
2023-02-04T23:25:00.430Z,0.0
2023-02-04T23:30:00.436Z,0.0
2023-02-04T23:35:00.428Z,0.0
2023-02-04T23:40:00.436Z,0.0
2023-02-04T23:45:00.495Z,0.0
2023-02-04T23:50:00.450Z,0.0
2023-02-04T23:55:00.409Z,0.0
